Time;durP1;ratioP1;P1;durP2;ratioP2;P2;SDS_P1;SDS_P2;PMS_P1;PMS_P2;Temp;Humidity;BMP_temperature;BMP_pressure;BME280_temperature;BME280_humidity;BME280_pressure;Samples;Min_cycle;Max_cycle;Signal;HPM_P1;HPM_P2
2022/05/16 00:00:16;;;;;;;14.82;2.83;;;13.70;99.90;;;;;;5085975;28;20131;-64
2022/05/16 00:02:42;;;;;;;14.23;2.95;;;13.70;99.90;;;;;;5065685;28;20048;-57
2022/05/16 00:05:09;;;;;;;10.93;2.40;;;13.60;99.90;;;;;;5068907;28;20501;-59
2022/05/16 00:07:35;;;;;;;8.35;2.75;;;13.60;99.90;;;;;;5067995;28;20058;-62
2022/05/16 00:10:01;;;;;;;7.22;2.70;;;13.60;99.90;;;;;;5068047;28;20421;-60
2022/05/16 00:12:27;;;;;;;10.02;2.75;;;13.50;99.90;;;;;;5084725;28;20040;-67
2022/05/16 00:14:53;;;;;;;5.93;2.78;;;13.50;99.90;;;;;;5085634;28;20107;-65
2022/05/16 00:17:19;;;;;;;12.15;2.53;;;13.50;99.90;;;;;;5067971;28;20485;-58
2022/05/16 00:19:44;;;;;;;13.05;2.50;;;13.40;99.90;;;;;;5047641;28;20051;-59
2022/05/16 00:22:10;;;;;;;4.13;2.55;;;13.30;99.90;;;;;;5048462;28;20056;-69
2022/05/16 00:24:40;;;;;;;5.68;2.30;;;13.30;99.90;;;;;;5047556;28;20386;-59
2022/05/16 00:27:06;;;;;;;6.43;2.67;;;13.20;99.90;;;;;;5048788;28;20048;-57
2022/05/16 00:29:31;;;;;;;5.25;2.15;;;13.20;99.90;;;;;;5070922;28;20509;-63
2022/05/16 00:31:57;;;;;;;5.18;2.00;;;13.10;99.90;;;;;;5051166;28;20057;-57
2022/05/16 00:34:23;;;;;;;6.32;2.00;;;13.20;99.90;;;;;;5067971;28;20122;-63
2022/05/16 00:36:49;;;;;;;4.95;1.67;;;13.20;99.90;;;;;;5068029;28;20851;-57
2022/05/16 00:39:17;;;;;;;4.68;1.80;;;13.20;99.90;;;;;;5086004;28;20131;-69
2022/05/16 00:41:43;;;;;;;5.80;1.70;;;13.30;99.90;;;;;;5067406;28;20044;-57
2022/05/16 00:44:10;;;;;;;4.10;1.83;;;13.20;99.90;;;;;;5087270;28;20152;-63
2022/05/16 00:46:35;;;;;;;4.78;2.00;;;13.20;99.90;;;;;;5071702;28;20051;-64
2022/05/16 00:49:05;;;;;;;4.03;1.75;;;13.30;99.90;;;;;;5088996;28;20479;-68
2022/05/16 00:51:34;;;;;;;3.47;1.77;;;13.20;99.90;;;;;;5071264;28;20067;-64
2022/05/16 00:54:14;;;;;;;6.50;1.67;;;13.20;99.90;;;;;;5090049;28;20055;-65
2022/05/16 00:56:42;;;;;;;4.47;1.60;;;13.10;99.90;;;;;;5072440;28;20056;-62
2022/05/16 00:59:08;;;;;;;6.30;1.70;;;13.10;99.90;;;;;;5071766;28;20078;-57
2022/05/16 01:07:04;;;;;;;4.53;1.77;;;13.10;99.90;;;;;;5071688;28;20131;-59
2022/05/16 01:09:30;;;;;;;7.88;1.63;;;13.10;99.90;;;;;;5071575;28;20048;-58
2022/05/16 01:11:57;;;;;;;6.75;1.83;;;13.00;99.90;;;;;;5070746;28;20044;-67
2022/05/16 01:14:43;;;;;;;4.60;1.58;;;13.10;99.90;;;;;;5071500;28;20048;-64
2022/05/16 01:17:09;;;;;;;5.72;1.60;;;13.10;99.90;;;;;;5068236;28;20110;-63
2022/05/16 01:19:34;;;;;;;3.50;1.13;;;13.10;99.90;;;;;;5067658;28;20135;-60
2022/05/16 01:22:06;;;;;;;7.03;1.55;;;13.10;99.90;;;;;;5067674;28;20036;-62
2022/05/16 01:24:32;;;;;;;4.25;1.40;;;13.10;99.90;;;;;;5067065;28;20465;-59
2022/05/16 01:26:58;;;;;;;4.03;1.48;;;13.10;99.90;;;;;;5068776;28;20058;-68
2022/05/16 01:29:23;;;;;;;6.68;1.58;;;13.10;99.90;;;;;;5050162;28;20490;-62
2022/05/16 01:31:49;;;;;;;7.47;1.35;;;13.10;99.90;;;;;;5067943;28;20052;-57
2022/05/16 01:34:16;;;;;;;6.45;1.42;;;13.00;99.90;;;;;;5080897;28;20048;-62
2022/05/16 01:36:42;;;;;;;3.70;1.52;;;13.00;99.90;;;;;;5067795;28;20044;-64
2022/05/16 01:39:07;;;;;;;4.90;1.60;;;13.00;99.90;;;;;;5067711;28;20048;-62
2022/05/16 01:41:33;;;;;;;4.25;1.48;;;12.90;99.90;;;;;;5067399;28;20091;-63
2022/05/16 01:44:00;;;;;;;5.15;1.75;;;12.90;99.90;;;;;;5067255;28;20067;-60
2022/05/16 01:46:44;;;;;;;1.30;1.13;;;12.90;99.90;;;;;;5050414;28;20490;-56
2022/05/16 01:49:11;;;;;;;7.65;1.75;;;13.00;99.90;;;;;;5051288;28;20087;-58
2022/05/16 01:51:37;;;;;;;3.42;1.30;;;12.90;99.90;;;;;;5066914;28;20049;-61
2022/05/16 01:54:03;;;;;;;3.70;1.38;;;12.90;99.90;;;;;;5074172;28;20377;-56
2022/05/16 01:56:31;;;;;;;2.90;1.10;;;12.90;99.90;;;;;;5029750;28;20514;-62
2022/05/16 01:58:58;;;;;;;2.67;1.30;;;12.90;99.90;;;;;;5037348;28;20061;-60
2022/05/16 02:01:24;;;;;;;4.00;1.30;;;12.90;99.90;;;;;;5053986;28;20040;-67
2022/05/16 02:03:49;;;;;;;11.20;1.40;;;12.90;99.90;;;;;;5081887;28;20532;-61
2022/05/16 02:06:16;;;;;;;3.45;1.50;;;12.80;99.90;;;;;;5068228;28;20427;-65
2022/05/16 02:08:43;;;;;;;1.50;1.05;;;12.80;99.90;;;;;;5066520;28;20131;-62
2022/05/16 02:11:09;;;;;;;3.40;1.20;;;12.70;99.90;;;;;;5083927;28;20048;-58
2022/05/16 02:13:37;;;;;;;2.28;1.50;;;12.70;99.90;;;;;;5066759;28;20098;-65
2022/05/16 02:16:03;;;;;;;1.15;0.95;;;12.70;99.90;;;;;;5066661;28;20056;-68
2022/05/16 02:18:29;;;;;;;2.72;1.30;;;12.60;99.90;;;;;;5049954;28;20083;-60
2022/05/16 02:24:38;;;;;;;3.58;1.27;;;12.50;99.90;;;;;;5050135;28;20491;-61
2022/05/16 02:26:27;;;;;;;2.72;1.55;;;12.50;99.90;;;;;;5052074;28;20048;-63
2022/05/16 02:28:53;;;;;;;2.78;1.23;;;12.40;99.90;;;;;;5034179;28;20056;-57
2022/05/16 02:31:21;;;;;;;4.28;1.30;;;12.30;99.90;;;;;;5066833;28;20438;-55
2022/05/16 02:33:48;;;;;;;3.35;1.50;;;12.30;99.90;;;;;;5083288;28;20546;-60
2022/05/16 02:36:15;;;;;;;4.65;1.60;;;12.30;99.90;;;;;;5066882;28;20128;-58
2022/05/16 02:38:41;;;;;;;2.28;1.40;;;12.30;99.90;;;;;;5067298;28;20139;-56
2022/05/16 02:41:07;;;;;;;2.45;1.48;;;12.20;99.90;;;;;;5066885;28;20514;-58
2022/05/16 02:43:33;;;;;;;6.25;1.45;;;12.20;99.90;;;;;;5065960;28;20045;-62
2022/05/16 02:45:59;;;;;;;4.00;1.00;;;12.20;99.90;;;;;;5050207;28;20394;-57
2022/05/16 02:48:25;;;;;;;2.70;1.33;;;12.10;99.90;;;;;;5066179;28;20475;-63
2022/05/16 02:50:51;;;;;;;2.67;1.27;;;12.00;99.90;;;;;;5067757;28;20127;-58
2022/05/16 02:53:16;;;;;;;1.42;1.33;;;12.10;99.90;;;;;;5066932;28;20490;-63
2022/05/16 02:55:42;;;;;;;6.63;1.50;;;12.00;99.90;;;;;;5065196;28;20683;-59
2022/05/16 02:58:08;;;;;;;2.15;1.10;;;12.00;99.90;;;;;;5067030;28;20117;-60
2022/05/16 03:00:35;;;;;;;3.80;1.33;;;12.00;99.90;;;;;;5065771;28;20091;-60
2022/05/16 03:03:01;;;;;;;2.05;1.20;;;12.00;99.90;;;;;;5066203;28;20422;-61
2022/05/16 03:05:26;;;;;;;2.55;1.27;;;12.00;99.90;;;;;;5065390;28;20052;-67
2022/05/16 03:07:52;;;;;;;6.30;1.42;;;11.90;99.90;;;;;;5048112;28;20486;-64
2022/05/16 03:10:18;;;;;;;3.72;1.40;;;11.90;99.90;;;;;;5049483;28;20037;-55
2022/05/16 03:12:45;;;;;;;3.38;1.30;;;11.90;99.90;;;;;;5065386;28;20109;-57
2022/05/16 03:15:13;;;;;;;9.00;1.40;;;11.90;99.90;;;;;;5081580;28;20072;-57
2022/05/16 03:17:39;;;;;;;3.17;1.17;;;11.90;99.90;;;;;;5072719;28;20513;-62
2022/05/16 03:20:12;;;;;;;2.10;0.93;;;11.90;99.90;;;;;;5086362;28;20091;-60
2022/05/16 03:22:38;;;;;;;3.22;1.33;;;11.90;99.90;;;;;;5052297;28;20402;-61
2022/05/16 03:25:04;;;;;;;2.50;1.13;;;11.90;99.90;;;;;;5068857;28;20051;-62
2022/05/16 03:27:30;;;;;;;3.92;1.30;;;11.90;99.90;;;;;;5069061;28;20048;-60
2022/05/16 03:29:56;;;;;;;3.63;1.52;;;11.90;99.90;;;;;;5068712;28;20060;-63
2022/05/16 03:32:22;;;;;;;9.38;1.63;;;11.90;99.90;;;;;;5068816;28;20055;-66
2022/05/16 03:34:54;;;;;;;3.95;1.20;;;11.80;99.90;;;;;;5067667;28;20047;-68
2022/05/16 03:37:21;;;;;;;6.47;1.45;;;11.80;99.90;;;;;;5084112;28;20083;-66
2022/05/16 03:42:33;;;;;;;1.98;1.40;;;11.80;99.90;;;;;;5085236;28;20047;-56
2022/05/16 03:44:59;;;;;;;5.05;1.30;;;11.80;99.90;;;;;;5052293;28;20036;-63
2022/05/16 03:47:24;;;;;;;4.95;2.22;;;11.70;99.90;;;;;;5072762;28;20127;-64
2022/05/16 03:49:51;;;;;;;2.20;1.27;;;11.70;99.90;;;;;;5032364;28;20048;-64
2022/05/16 03:52:16;;;;;;;3.45;1.42;;;11.70;99.90;;;;;;5066208;28;20078;-58
2022/05/16 03:54:42;;;;;;;5.20;1.60;;;11.70;99.90;;;;;;5048501;28;20430;-69
2022/05/16 03:57:08;;;;;;;3.20;1.38;;;11.70;99.90;;;;;;5055017;28;20059;-64
2022/05/16 03:59:35;;;;;;;6.57;1.45;;;11.70;99.90;;;;;;5068006;28;20474;-65
2022/05/16 04:02:01;;;;;;;4.13;1.60;;;11.70;99.90;;;;;;5068128;28;20127;-59
2022/05/16 04:04:27;;;;;;;3.40;1.40;;;11.70;99.90;;;;;;5068461;28;20055;-63
2022/05/16 04:06:54;;;;;;;4.38;1.40;;;11.60;99.90;;;;;;5068363;28;20379;-62
2022/05/16 04:09:20;;;;;;;1.58;1.10;;;11.60;99.90;;;;;;5067515;28;20410;-65
2022/05/16 04:11:46;;;;;;;4.10;1.45;;;11.60;99.90;;;;;;5068278;28;20058;-67
2022/05/16 04:14:12;;;;;;;2.90;1.25;;;11.60;99.90;;;;;;5051040;28;20040;-66
2022/05/16 04:16:38;;;;;;;2.50;1.50;;;11.60;99.90;;;;;;5086023;28;20059;-59
2022/05/16 04:19:07;;;;;;;7.78;1.98;;;11.60;99.90;;;;;;5067517;28;20063;-54
2022/05/16 04:21:35;;;;;;;3.80;1.58;;;11.60;99.90;;;;;;5051373;28;20405;-69
2022/05/16 04:24:01;;;;;;;1.98;1.35;;;11.70;99.90;;;;;;5086523;28;20536;-61
2022/05/16 04:26:27;;;;;;;1.83;1.45;;;11.70;99.90;;;;;;5067623;28;20131;-62
2022/05/16 04:28:53;;;;;;;3.80;1.38;;;11.70;99.90;;;;;;5068017;28;20063;-65
2022/05/16 04:31:19;;;;;;;2.90;1.40;;;11.70;99.90;;;;;;5067299;28;20387;-60
2022/05/16 04:33:45;;;;;;;1.60;1.25;;;11.70;99.90;;;;;;5051171;28;20054;-62
2022/05/16 04:36:10;;;;;;;5.43;1.30;;;11.80;99.90;;;;;;5068428;28;20418;-63
2022/05/16 04:38:36;;;;;;;1.45;1.30;;;11.80;99.90;;;;;;5067362;28;20036;-70
2022/05/16 04:43:47;;;;;;;3.42;1.35;;;12.00;99.90;;;;;;5084052;28;20426;-59
2022/05/16 04:46:13;;;;;;;3.10;1.20;;;12.00;99.90;;;;;;5085219;28;20525;-65
2022/05/16 04:48:38;;;;;;;4.32;1.40;;;12.20;99.90;;;;;;5066932;28;20052;-56
2022/05/16 04:51:04;;;;;;;5.95;1.40;;;12.20;99.90;;;;;;5047524;28;20044;-61
2022/05/16 04:53:30;;;;;;;14.93;1.90;;;12.30;99.90;;;;;;5031099;28;20045;-60
2022/05/16 04:55:56;;;;;;;3.33;1.33;;;12.30;99.90;;;;;;5047143;28;20060;-67
2022/05/16 04:58:22;;;;;;;9.20;1.77;;;12.40;99.90;;;;;;5047790;28;20055;-62
2022/05/16 05:00:48;;;;;;;5.07;1.52;;;12.30;99.90;;;;;;5042952;28;20074;-60
2022/05/16 05:03:14;;;;;;;3.25;1.85;;;12.30;99.90;;;;;;5068235;28;20550;-58
2022/05/16 05:05:39;;;;;;;4.65;1.40;;;12.20;99.90;;;;;;5085117;28;20051;-67
2022/05/16 05:08:05;;;;;;;4.13;1.20;;;12.30;99.90;;;;;;5068382;28;20040;-64
2022/05/16 05:16:17;;;;;;;4.28;1.40;;;12.40;99.90;;;;;;5070607;28;20051;-67
2022/05/16 05:18:43;;;;;;;4.68;1.27;;;12.40;99.90;;;;;;5083422;28;20233;-68
2022/05/16 05:21:10;;;;;;;4.72;1.30;;;12.50;99.90;;;;;;5067520;28;20486;-64
2022/05/16 05:23:38;;;;;;;2.55;1.60;;;12.60;99.90;;;;;;5047220;28;20078;-58
2022/05/16 05:26:05;;;;;;;4.20;1.63;;;12.70;99.90;;;;;;5064304;28;20453;-60
2022/05/16 05:28:33;;;;;;;2.28;1.45;;;12.90;99.90;;;;;;5031081;28;20088;-65
2022/05/16 05:30:59;;;;;;;3.45;1.35;;;13.00;99.90;;;;;;5066684;28;20055;-59
2022/05/16 05:33:25;;;;;;;2.90;1.63;;;13.10;99.90;;;;;;5071540;28;20450;-59
2022/05/16 05:35:51;;;;;;;1.70;1.30;;;13.20;99.90;;;;;;5087482;28;20108;-58
2022/05/16 05:38:18;;;;;;;3.38;1.27;;;13.30;99.90;;;;;;5070914;28;20048;-56
2022/05/16 05:40:44;;;;;;;6.25;1.60;;;13.40;99.90;;;;;;5088133;28;20078;-65
2022/05/16 05:43:10;;;;;;;3.05;1.45;;;13.50;99.90;;;;;;5055187;28;20045;-60
2022/05/16 05:45:40;;;;;;;2.28;1.00;;;13.50;99.10;;;;;;5085915;28;20051;-65
2022/05/16 05:48:06;;;;;;;2.33;1.40;;;13.60;99.20;;;;;;5070964;28;20063;-59
2022/05/16 05:50:32;;;;;;;2.90;1.73;;;13.70;99.30;;;;;;5054626;28;20517;-55
2022/05/16 05:52:58;;;;;;;4.45;1.65;;;13.80;99.90;;;;;;5085506;28;20040;-59
2022/05/16 05:55:24;;;;;;;5.43;1.45;;;13.90;95.20;;;;;;5071737;28;20512;-58
2022/05/16 05:57:50;;;;;;;3.30;1.58;;;14.00;92.80;;;;;;5070278;28;20059;-66
2022/05/16 06:00:16;;;;;;;10.00;1.50;;;14.20;91.90;;;;;;5054543;28;20048;-66
2022/05/16 06:02:43;;;;;;;5.22;1.63;;;14.20;92.00;;;;;;5086649;28;20723;-66
2022/05/16 06:05:11;;;;;;;2.80;1.50;;;14.40;88.60;;;;;;5087617;28;20115;-60
2022/05/16 06:07:37;;;;;;;3.25;1.25;;;14.50;89.60;;;;;;5070748;28;20087;-61
2022/05/16 06:10:04;;;;;;;4.20;1.20;;;14.60;90.40;;;;;;5088135;28;20109;-58
2022/05/16 06:12:31;;;;;;;4.60;1.85;;;14.60;88.10;;;;;;5088318;28;20414;-56
2022/05/16 06:14:57;;;;;;;4.32;1.80;;;14.60;84.00;;;;;;5069202;28;20040;-59
2022/05/16 06:17:23;;;;;;;7.00;1.50;;;14.70;89.20;;;;;;5071058;28;20056;-62
2022/05/16 06:19:49;;;;;;;4.93;2.00;;;14.80;90.90;;;;;;5053527;28;20451;-67
2022/05/16 06:22:16;;;;;;;8.23;2.28;;;14.80;83.80;;;;;;5087260;28;20558;-66
2022/05/16 06:27:29;;;;;;;7.00;1.70;;;15.00;84.60;;;;;;5067908;28;20131;-57
2022/05/16 06:29:56;;;;;;;6.43;1.73;;;15.10;88.80;;;;;;5050103;28;20080;-63
2022/05/16 06:32:22;;;;;;;9.48;2.20;;;15.10;82.60;;;;;;5063336;28;20113;-60
2022/05/16 06:34:48;;;;;;;7.43;1.58;;;15.20;87.00;;;;;;5053063;28;20056;-63
2022/05/16 06:37:15;;;;;;;6.90;1.67;;;15.20;85.00;;;;;;5070117;28;20494;-60
2022/05/16 06:39:40;;;;;;;4.15;1.50;;;15.30;82.20;;;;;;5070109;28;20077;-65
2022/05/16 06:42:07;;;;;;;4.47;1.52;;;15.30;87.30;;;;;;5087624;28;20131;-58
2022/05/16 06:44:32;;;;;;;9.20;1.73;;;15.50;81.70;;;;;;5069865;28;20127;-66
2022/05/16 06:46:58;;;;;;;8.45;1.85;;;15.60;80.70;;;;;;5049754;28;20471;-55
2022/05/16 06:49:23;;;;;;;2.85;1.55;;;15.60;78.60;;;;;;5049099;28;20053;-61
2022/05/16 06:51:50;;;;;;;3.80;2.13;;;15.60;78.10;;;;;;5049837;28;20060;-59
2022/05/16 06:54:15;;;;;;;4.30;1.75;;;15.60;85.40;;;;;;5049669;28;20414;-63
2022/05/16 06:56:41;;;;;;;4.97;1.65;;;15.60;83.80;;;;;;5063589;28;20048;-58
2022/05/16 06:59:07;;;;;;;3.67;1.77;;;15.60;77.20;;;;;;5087578;28;20048;-62
2022/05/16 07:01:32;;;;;;;5.35;1.67;;;15.60;75.40;;;;;;5052769;28;20441;-58
2022/05/16 07:03:58;;;;;;;8.23;1.80;;;15.70;76.00;;;;;;5052675;28;20040;-57
2022/05/16 07:06:24;;;;;;;4.78;1.60;;;15.90;78.20;;;;;;5087040;28;20052;-60
2022/05/16 07:08:50;;;;;;;9.05;1.90;;;16.20;76.90;;;;;;5069298;28;20587;-64
2022/05/16 07:11:15;;;;;;;6.60;1.95;;;16.50;76.80;;;;;;5052050;28;20040;-63
2022/05/16 07:13:41;;;;;;;3.50;1.35;;;17.00;75.70;;;;;;5069690;28;20083;-56
2022/05/16 07:16:07;;;;;;;7.53;1.70;;;17.40;63.10;;;;;;5086888;28;20055;-65
2022/05/16 07:18:33;;;;;;;6.85;1.63;;;17.70;64.40;;;;;;5065622;28;20053;-64
2022/05/16 07:20:59;;;;;;;5.93;2.20;;;18.10;58.20;;;;;;5065537;28;20491;-55
2022/05/16 07:23:26;;;;;;;5.80;1.50;;;18.30;55.40;;;;;;5065880;28;20064;-63
2022/05/16 07:28:37;;;;;;;6.68;1.73;;;18.70;60.40;;;;;;5065372;28;20506;-54
2022/05/16 07:31:03;;;;;;;2.60;1.52;;;18.90;53.10;;;;;;5048934;28;20115;-58
2022/05/16 07:33:29;;;;;;;8.43;1.90;;;19.00;44.30;;;;;;5049017;28;20080;-58
2022/05/16 07:35:55;;;;;;;8.77;2.58;;;19.00;45.00;;;;;;5082228;28;20076;-61
2022/05/16 07:38:23;;;;;;;4.78;1.70;;;19.10;43.50;;;;;;5055640;28;20033;-62
2022/05/16 07:40:49;;;;;;;7.47;1.92;;;19.20;40.50;;;;;;5044915;28;20069;-67
2022/05/16 07:43:16;;;;;;;5.45;1.55;;;19.50;36.80;;;;;;5029836;28;20100;-58
2022/05/16 07:45:42;;;;;;;5.57;1.67;;;19.60;37.80;;;;;;5051232;28;20392;-61
2022/05/16 07:48:08;;;;;;;11.55;2.53;;;19.90;39.40;;;;;;5064114;28;20047;-66
2022/05/16 07:50:38;;;;;;;6.47;1.92;;;20.00;44.30;;;;;;5064492;28;20054;-57
2022/05/16 07:53:11;;;;;;;7.90;1.50;;;20.00;41.50;;;;;;5064818;28;20048;-60
2022/05/16 07:55:39;;;;;;;9.65;1.95;;;20.20;34.00;;;;;;5065088;28;20048;-61
2022/05/16 07:58:05;;;;;;;7.95;2.00;;;20.30;31.90;;;;;;5064496;28;20047;-63
2022/05/16 08:00:32;;;;;;;5.50;1.73;;;20.40;30.90;;;;;;5065477;28;20131;-52
2022/05/16 08:02:58;;;;;;;6.97;1.63;;;20.60;38.60;;;;;;5065654;28;20052;-59
2022/05/16 08:05:25;;;;;;;6.05;1.40;;;20.60;31.40;;;;;;5082552;28;20049;-66
2022/05/16 08:10:39;;;;;;;7.85;1.88;;;20.70;28.70;;;;;;5064420;28;20141;-59
2022/05/16 08:13:07;;;;;;;8.50;2.00;;;20.80;28.00;;;;;;5066281;28;20391;-63
2022/05/16 08:15:35;;;;;;;4.53;1.92;;;20.90;27.00;;;;;;5064867;28;20464;-52
2022/05/16 08:18:02;;;;;;;6.38;2.00;;;21.10;27.40;;;;;;5074706;28;20510;-59
2022/05/16 08:20:28;;;;;;;11.45;2.17;;;21.40;24.70;;;;;;5072307;28;20060;-68
2022/05/16 08:22:55;;;;;;;9.15;1.88;;;21.40;22.80;;;;;;5048406;28;20044;-63
2022/05/16 08:25:21;;;;;;;9.15;2.67;;;21.30;24.30;;;;;;5065950;28;20046;-62
2022/05/16 08:27:50;;;;;;;8.52;2.05;;;21.30;24.10;;;;;;5067307;28;20044;-64
2022/05/16 08:30:16;;;;;;;4.93;2.35;;;21.30;25.00;;;;;;5080128;28;20528;-66
2022/05/16 08:32:43;;;;;;;6.18;1.75;;;21.30;25.20;;;;;;5067042;28;20067;-55
2022/05/16 08:35:11;;;;;;;5.18;2.25;;;21.20;21.40;;;;;;5084261;28;20048;-61
2022/05/16 08:40:27;;;;;;;4.75;1.80;;;21.60;23.30;;;;;;5084331;28;20056;-64
2022/05/16 08:42:56;;;;;;;4.95;1.55;;;21.70;19.60;;;;;;5067671;28;20131;-60
2022/05/16 08:45:34;;;;;;;10.95;1.80;;;21.80;21.40;;;;;;5067025;28;20418;-61
2022/05/16 08:48:06;;;;;;;6.88;1.83;;;22.00;20.20;;;;;;5066999;28;20094;-69
2022/05/16 08:51:13;;;;;;;9.25;2.42;;;21.90;19.00;;;;;;5085005;28;20044;-68
2022/05/16 08:53:53;;;;;;;11.85;2.00;;;21.90;20.10;;;;;;5056256;28;20093;-59
2022/05/16 08:56:23;;;;;;;10.75;2.58;;;21.80;19.60;;;;;;5083939;28;20055;-60
2022/05/16 08:58:57;;;;;;;5.82;2.00;;;21.70;20.20;;;;;;5061387;28;20394;-61
2022/05/16 09:01:31;;;;;;;6.45;2.13;;;21.60;20.10;;;;;;5067608;28;21726;-59
2022/05/16 09:04:10;;;;;;;12.77;2.30;;;21.60;19.70;;;;;;5084450;28;20055;-58
2022/05/16 09:06:39;;;;;;;8.37;2.00;;;21.60;21.20;;;;;;5069782;28;20051;-60
2022/05/16 09:09:15;;;;;;;8.75;1.90;;;21.70;22.00;;;;;;5071218;28;20044;-61
2022/05/16 09:11:56;;;;;;;3.33;1.38;;;21.80;19.50;;;;;;5087445;28;20047;-65
2022/05/16 09:14:41;;;;;;;13.88;2.22;;;21.70;17.40;;;;;;5068994;28;20047;-63
2022/05/16 09:17:31;;;;;;;6.65;1.95;;;21.80;18.80;;;;;;5069968;28;20119;-60
2022/05/16 09:20:33;;;;;;;14.95;2.17;;;21.90;19.70;;;;;;5070682;28;20048;-67
2022/05/16 09:23:18;;;;;;;10.25;2.13;;;22.10;19.20;;;;;;5070532;28;20127;-66
2022/05/16 09:25:55;;;;;;;5.72;2.00;;;22.30;20.90;;;;;;5087694;28;20189;-64
2022/05/16 09:28:37;;;;;;;8.43;1.95;;;22.40;17.60;;;;;;5070352;28;20040;-64
2022/05/16 09:31:31;;;;;;;4.32;1.83;;;22.40;15.40;;;;;;5070316;28;20040;-58
2022/05/16 09:34:00;;;;;;;14.32;2.03;;;22.30;17.40;;;;;;5087117;28;20127;-59
2022/05/16 09:36:32;;;;;;;6.78;1.98;;;22.30;17.70;;;;;;5071759;28;20101;-60
2022/05/16 09:38:58;;;;;;;4.28;2.03;;;22.20;15.20;;;;;;5070827;28;20561;-61
2022/05/16 09:41:35;;;;;;;12.00;2.15;;;22.20;16.10;;;;;;5070413;28;20143;-60
2022/05/16 09:44:23;;;;;;;12.23;1.92;;;22.20;16.20;;;;;;5070535;28;20390;-60
2022/05/16 09:47:28;;;;;;;12.77;1.83;;;22.30;16.40;;;;;;5088017;28;20051;-57
2022/05/16 09:50:02;;;;;;;;;;;22.50;17.80;;;;;;5070961;28;20131;-61
2022/05/16 09:52:34;;;;;;;11.18;2.30;;;22.70;19.10;;;;;;5088975;28;19930;-68
2022/05/16 09:55:03;;;;;;;9.77;1.80;;;22.90;19.50;;;;;;5087986;28;20048;-57
2022/05/16 09:57:37;;;;;;;10.80;2.30;;;23.20;16.00;;;;;;5054475;28;20074;-56
2022/05/16 10:00:32;;;;;;;9.68;2.08;;;23.40;16.30;;;;;;5070006;28;20039;-59
2022/05/16 10:03:23;;;;;;;7.65;1.90;;;23.70;14.30;;;;;;5070054;28;20090;-66
2022/05/16 10:05:51;;;;;;;4.88;1.77;;;23.80;13.40;;;;;;5070135;28;20048;-61
2022/05/16 10:08:30;;;;;;;10.60;2.97;;;23.90;10.90;;;;;;5087239;28;20040;-60
2022/05/16 10:11:00;;;;;;;10.93;2.40;;;23.80;12.60;;;;;;5089031;28;20094;-66
2022/05/16 10:13:26;;;;;;;8.48;2.35;;;23.80;13.90;;;;;;5070381;28;20380;-58
2022/05/16 10:15:54;;;;;;;6.15;2.10;;;23.80;13.10;;;;;;5070141;28;20155;-56
2022/05/16 10:18:22;;;;;;;12.35;2.40;;;23.60;11.70;;;;;;5069914;28;20378;-63
2022/05/16 10:21:09;;;;;;;5.47;2.23;;;23.40;12.10;;;;;;5053004;28;20048;-64
2022/05/16 10:23:38;;;;;;;9.10;2.58;;;23.40;14.30;;;;;;5070262;28;20055;-60
2022/05/16 10:26:13;;;;;;;13.73;2.20;;;23.60;12.50;;;;;;5068882;28;20040;-68
2022/05/16 10:28:46;;;;;;;6.13;2.13;;;24.00;11.20;;;;;;5088036;28;20047;-59
2022/05/16 10:34:12;;;;;;;9.82;2.35;;;24.10;12.30;;;;;;5082725;28;20051;-69
2022/05/16 10:36:39;;;;;;;18.27;3.20;;;24.20;11.50;;;;;;5070342;28;20048;-64
2022/05/16 10:39:09;;;;;;;23.35;2.65;;;24.20;9.50;;;;;;5086848;28;20044;-70
2022/05/16 10:41:57;;;;;;;11.55;2.75;;;24.10;11.20;;;;;;5087481;28;20050;-63
2022/05/16 10:44:36;;;;;;;9.88;2.13;;;24.20;10.80;;;;;;5070277;28;20166;-61
2022/05/16 10:47:09;;;;;;;;;;;24.50;10.90;;;;;;5070005;28;20032;-59
2022/05/16 10:49:42;;;;;;;7.95;2.72;;;24.90;9.80;;;;;;5070322;28;19920;-60
2022/05/16 10:52:25;;;;;;;6.95;2.08;;;25.10;7.80;;;;;;5068817;28;20044;-59
2022/05/16 10:54:52;;;;;;;7.05;2.10;;;25.20;10.00;;;;;;5088188;28;20052;-59
2022/05/16 10:57:44;;;;;;;8.50;2.03;;;25.20;8.30;;;;;;5086339;28;20048;-61
2022/05/16 11:00:21;;;;;;;7.80;2.05;;;25.30;4.80;;;;;;5047747;28;20054;-56
2022/05/16 11:03:13;;;;;;;9.55;2.50;;;25.40;7.70;;;;;;5075136;28;20064;-67
2022/05/16 11:05:57;;;;;;;7.22;2.58;;;25.40;4.20;;;;;;5087808;28;20483;-62
2022/05/16 11:08:32;;;;;;;7.53;2.20;;;25.50;5.70;;;;;;5068580;28;20048;-60
2022/05/16 11:11:31;;;;;;;7.38;1.65;;;25.50;4.50;;;;;;5070106;28;20083;-56
2022/05/16 11:14:22;;;;;;;19.17;2.38;;;25.30;6.40;;;;;;5074736;28;20440;-58
2022/05/16 11:16:52;;;;;;;5.35;2.10;;;25.10;9.40;;;;;;5087222;28;20396;-64
2022/05/16 11:19:42;;;;;;;4.95;2.20;;;24.90;5.70;;;;;;5067430;28;20047;-57
2022/05/16 11:22:14;;;;;;;8.77;2.63;;;24.90;8.10;;;;;;5048322;28;20047;-68
2022/05/16 11:25:23;;;;;;;5.93;2.22;;;24.90;6.10;;;;;;5077678;28;20083;-67
2022/05/16 11:28:32;;;;;;;9.20;2.13;;;25.00;8.40;;;;;;5083066;28;20044;-59
2022/05/16 11:31:08;;;;;;;9.75;2.10;;;25.30;7.10;;;;;;5065705;28;20048;-63
2022/05/16 11:33:46;;;;;;;14.32;2.33;;;25.50;12.50;;;;;;5084687;28;20048;-63
2022/05/16 11:36:32;;;;;;;9.55;2.28;;;25.60;5.50;;;;;;5055482;28;20094;-64
2022/05/16 11:39:20;;;;;;;6.90;2.30;;;25.50;5.60;;;;;;5047789;28;20439;-57
2022/05/16 11:42:05;;;;;;;4.57;2.20;;;25.40;6.40;;;;;;5081061;28;20546;-61
2022/05/16 11:44:50;;;;;;;9.68;1.90;;;25.50;8.30;;;;;;5086746;28;20051;-54
2022/05/16 11:47:24;;;;;;;5.05;1.73;;;25.80;7.70;;;;;;5085544;28;20051;-65
2022/05/16 11:50:13;;;;;;;11.70;2.20;;;25.80;3.90;;;;;;5069466;28;20063;-67
2022/05/16 11:52:58;;;;;;;6.53;2.05;;;25.90;6.80;;;;;;5076743;28;20062;-60
2022/05/16 12:01:07;;;;;;;7.57;2.22;;;26.10;2.70;;;;;;5085058;28;20056;-67
2022/05/16 12:03:43;;;;;;;9.30;2.40;;;25.80;3.90;;;;;;5080507;28;20060;-58
2022/05/16 12:06:37;;;;;;;16.02;2.20;;;25.60;3.60;;;;;;5066052;28;20037;-59
2022/05/16 12:09:25;;;;;;;8.05;1.80;;;25.50;4.90;;;;;;5053375;28;20165;-58
2022/05/16 12:11:53;;;;;;;17.38;2.58;;;25.50;5.30;;;;;;5085844;28;20137;-60
2022/05/16 12:14:34;;;;;;;15.00;2.78;;;25.50;9.20;;;;;;5085385;28;20052;-64
2022/05/16 12:17:18;;;;;;;6.80;2.05;;;25.60;7.30;;;;;;5050503;28;20506;-67
2022/05/16 12:19:53;;;;;;;5.32;1.88;;;25.50;9.30;;;;;;5086248;28;20048;-66
2022/05/16 12:22:22;;;;;;;12.27;2.28;;;25.40;5.70;;;;;;5079191;28;20510;-68
2022/05/16 12:24:52;;;;;;;13.45;2.20;;;25.40;6.50;;;;;;5068055;28;20062;-65
2022/05/16 12:27:27;;;;;;;6.50;2.15;;;25.40;5.20;;;;;;5085963;28;20075;-56
2022/05/16 12:29:56;;;;;;;7.63;2.22;;;25.30;6.60;;;;;;5067685;28;20048;-63
2022/05/16 12:32:31;;;;;;;4.90;1.83;;;25.20;5.50;;;;;;5085806;28;20052;-61
2022/05/16 12:35:05;;;;;;;4.85;2.00;;;25.20;6.20;;;;;;5067148;28;20067;-65
2022/05/16 12:37:33;;;;;;;5.80;1.60;;;25.00;2.80;;;;;;5084963;28;20135;-61
2022/05/16 12:40:53;;;;;;;10.55;2.00;;;24.90;6.10;;;;;;5085330;28;20516;-54
2022/05/16 12:43:57;;;;;;;5.80;1.88;;;24.80;4.40;;;;;;5064065;28;20056;-62
2022/05/16 12:46:46;;;;;;;7.35;1.92;;;24.70;3.70;;;;;;5060350;28;20067;-67
2022/05/16 12:49:29;;;;;;;8.07;2.33;;;24.70;7.20;;;;;;5082111;28;20097;-63
2022/05/16 12:52:06;;;;;;;7.28;1.90;;;24.60;7.80;;;;;;5067256;28;20043;-68
2022/05/16 12:55:00;;;;;;;13.27;2.22;;;24.70;10.20;;;;;;5060239;28;20045;-66
2022/05/16 12:57:59;;;;;;;12.25;2.13;;;24.70;9.30;;;;;;5066724;28;20040;-62
2022/05/16 13:00:27;;;;;;;;;;;24.70;9.00;;;;;;5043971;28;20498;-67
2022/05/16 13:03:22;;;;;;;4.78;2.17;;;24.70;9.40;;;;;;5085957;28;19920;-66
2022/05/16 13:06:04;;;;;;;8.70;2.40;;;24.70;11.00;;;;;;5033325;28;20067;-68
2022/05/16 13:08:43;;;;;;;5.63;2.00;;;24.70;10.40;;;;;;5084893;28;20131;-60
2022/05/16 13:11:34;;;;;;;11.95;1.80;;;24.70;10.50;;;;;;5085775;28;20047;-63
2022/05/16 13:14:20;;;;;;;12.93;2.83;;;24.60;11.50;;;;;;5082280;28;20090;-67
2022/05/16 13:16:52;;;;;;;8.10;2.50;;;24.60;12.10;;;;;;5050608;28;20139;-56
2022/05/16 13:19:23;;;;;;;10.77;2.28;;;24.70;10.60;;;;;;5081950;28;20062;-68
2022/05/16 13:22:09;;;;;;;5.25;1.83;;;24.70;10.20;;;;;;5050733;28;20486;-60
2022/05/16 13:24:35;;;;;;;5.85;1.92;;;24.70;12.00;;;;;;5068161;28;20044;-57
2022/05/16 13:29:52;;;;;;;4.28;2.10;;;24.70;10.60;;;;;;5084947;28;20084;-64
2022/05/16 13:32:20;;;;;;;6.40;2.53;;;24.80;11.70;;;;;;5067346;28;20079;-61
2022/05/16 13:34:52;;;;;;;15.43;3.17;;;24.90;13.20;;;;;;5067124;28;20043;-64
2022/05/16 13:37:21;;;;;;;9.10;3.75;;;24.90;9.60;;;;;;5067338;28;20044;-61
2022/05/16 13:39:50;;;;;;;4.85;2.72;;;24.90;12.20;;;;;;5084551;28;20291;-62
2022/05/16 13:42:22;;;;;;;5.75;2.58;;;24.90;12.60;;;;;;5086180;28;20052;-62
2022/05/16 13:44:54;;;;;;;7.20;2.38;;;24.80;12.90;;;;;;5067264;28;20080;-62
2022/05/16 13:47:23;;;;;;;12.43;2.38;;;24.80;11.40;;;;;;5082449;28;20051;-65
2022/05/16 13:49:49;;;;;;;8.57;2.92;;;24.70;11.50;;;;;;5050115;28;20044;-62